Pj Brix — WDD5130 — position and weather

sailwx.info

Track history (hours):
 
Tides and Currents Weather Stations Pressure Air Temp Water Temp Dewpoint Dewpoint Depression Visibility Wind Speed Wind Dir Waves Ship Positions

Pj Brix

Owner: Foss Maritime Co., Portland, OR. More information available from US FCC via Universal Licensing System and Coast Guard Vessel Documentation Center.

Last reported at 2017-Oct-20 07:00 UTC. Time now 2017-Oct-20 07:21 UTC.
Position N 45°38' W 122°42'.

Length 39 m; draft 3 m.

Type: Towing. MMSI: 2249672.

Date/timePositionNaut miles runAvg speedWind from/ knotsBaromVisibWave heightAir tempDewpointWater temp
2017-Oct-20 07:00N 45°38' W 122°42'0 0.0
2017-Oct-20 06:30N 45°38' W 122°42'0 0.0
2017-Oct-20 06:00N 45°38' W 122°42'0 0.0
2017-Oct-20 05:31N 45°38' W 122°42'0 0.0
2017-Oct-20 05:01N 45°38' W 122°42'0 0.0
2017-Oct-20 04:30N 45°38' W 122°42'0 0.0
2017-Oct-20 04:00N 45°38' W 122°42'0 0.0
2017-Oct-20 03:30N 45°38' W 122°42'0 0.0
2017-Oct-20 03:00N 45°38' W 122°42'0 0.0
2017-Oct-20 02:30N 45°38' W 122°42'0 0.0
2017-Oct-20 02:00N 45°38' W 122°42'0 0.0
2017-Oct-20 01:31N 45°38' W 122°42'0 0.0
2017-Oct-20 01:00N 45°38' W 122°42'0 0.0
2017-Oct-20 00:31N 45°38' W 122°42'0 0.6
2017-Oct-20 00:01N 45°38' W 122°42'0 0.2
2017-Oct-19 23:30N 45°38' W 122°42'1 3.0
2017-Oct-19 23:00N 45°39' W 122°44'1 2.1
2017-Oct-19 22:30N 45°39' W 122°45'0 0.0
2017-Oct-19 21:59N 45°39' W 122°45'0 0.0
2017-Oct-19 21:30N 45°39' W 122°45'0 0.0
2017-Oct-19 21:01N 45°39' W 122°45'0 0.0
2017-Oct-19 20:31N 45°39' W 122°45'0 0.0
2017-Oct-19 20:01N 45°39' W 122°45'0 0.0
2017-Oct-19 19:31N 45°39' W 122°45'0 0.0
2017-Oct-19 19:00N 45°39' W 122°45'0 0.0
2017-Oct-19 18:30N 45°39' W 122°45'0 0.0
2017-Oct-19 18:00N 45°39' W 122°45'0 0.0
2017-Oct-19 17:31N 45°39' W 122°45'0 0.0
2017-Oct-19 17:00N 45°39' W 122°45'0 0.0
2017-Oct-19 16:30N 45°39' W 122°45'0 0.0
2017-Oct-19 16:00N 45°39' W 122°45'0 0.0
2017-Oct-19 15:30N 45°39' W 122°45'0 0.0
2017-Oct-19 15:00N 45°39' W 122°45'0 0.0
2017-Oct-19 14:31N 45°39' W 122°45'0 0.0
2017-Oct-19 13:51N 45°39' W 122°45'0 0.0
2017-Oct-19 13:30N 45°39' W 122°45'0 0.0
2017-Oct-19 13:00N 45°39' W 122°45'0 0.0
2017-Oct-19 12:31N 45°39' W 122°45'0 0.0
2017-Oct-19 12:01N 45°39' W 122°45'0 0.0
2017-Oct-19 11:30N 45°39' W 122°45'0 0.0
2017-Oct-19 11:01N 45°39' W 122°45'0 0.0
2017-Oct-19 10:30N 45°39' W 122°45'0 0.0
2017-Oct-19 09:57N 45°39' W 122°45'0 0.0
2017-Oct-19 09:31N 45°39' W 122°45'0 0.0
2017-Oct-19 09:01N 45°39' W 122°45'0 0.0
2017-Oct-19 08:31N 45°39' W 122°45'0 0.0
2017-Oct-19 08:00N 45°39' W 122°45'0 0.0
2017-Oct-19 07:30N 45°39' W 122°45'0 0.0
2017-Oct-19 07:00N 45°39' W 122°45'0 0.0
2017-Oct-19 06:31N 45°39' W 122°45'1 1.6
2017-Oct-19 06:01N 45°39' W 122°46'0 0.5
2017-Oct-19 05:30N 45°39' W 122°46'1 1.4
2017-Oct-19 04:51N 45°39' W 122°46'0 0.6
2017-Oct-19 04:31N 45°39' W 122°46'0 0.5
2017-Oct-19 04:00N 45°39' W 122°45'0 0.0
2017-Oct-19 03:30N 45°39' W 122°45'0 0.0
2017-Oct-19 03:01N 45°39' W 122°45'1 2.9
2017-Oct-19 02:30N 45°41' W 122°46'4 7.2
2017-Oct-19 01:59N 45°44' W 122°46'3 7.3
2017-Oct-19 01:30N 45°48' W 122°47'4 7.5
2017-Oct-19 01:01N 45°51' W 122°47'4 8.1
2017-Oct-19 00:31N 45°55' W 122°49'4 8.4
2017-Oct-19 00:00N 45°59' W 122°51'5 9.1
2017-Oct-18 23:31N 46°03' W 122°53'3 5.3
2017-Oct-18 23:01N 46°05' W 122°56'0 0.0
2017-Oct-18 22:29N 46°05' W 122°56'0 0.1
2017-Oct-18 21:59N 46°05' W 122°56'0 0.0
2017-Oct-18 21:26N 46°05' W 122°56'0 0.0
2017-Oct-18 20:59N 46°05' W 122°56'0 0.0
2017-Oct-18 20:29N 46°05' W 122°56'0 0.0
2017-Oct-18 19:56N 46°05' W 122°56'0 0.0
2017-Oct-18 19:29N 46°05' W 122°56'0 0.0
2017-Oct-18 18:59N 46°05' W 122°56'0 0.0
2017-Oct-18 18:29N 46°05' W 122°56'0 0.0
2017-Oct-18 17:59N 46°05' W 122°56'0 0.0
2017-Oct-18 17:29N 46°05' W 122°56'0 0.0
2017-Oct-18 16:56N 46°05' W 122°56'0 0.0
2017-Oct-18 16:29N 46°05' W 122°56'0 0.0
2017-Oct-18 15:50N 46°05' W 122°56'0 0.0
2017-Oct-18 15:23N 46°05' W 122°56'0 0.0
2017-Oct-18 14:53N 46°05' W 122°56'0 0.0
2017-Oct-18 13:56N 46°05' W 122°56'0 0.0
2017-Oct-18 13:29N 46°05' W 122°56'0 0.0
2017-Oct-18 12:44N 46°05' W 122°56'0 0.0
2017-Oct-18 12:29N 46°05' W 122°56'0 0.0
2017-Oct-18 11:59N 46°05' W 122°56'0 0.0
2017-Oct-18 11:29N 46°05' W 122°56'0 0.0
2017-Oct-18 10:59N 46°05' W 122°56'0 0.0
2017-Oct-18 10:26N 46°05' W 122°56'0 0.0
2017-Oct-18 09:59N 46°05' W 122°56'0 0.0
2017-Oct-18 09:26N 46°05' W 122°56'0 0.0
2017-Oct-18 08:47N 46°05' W 122°56'0 0.0
2017-Oct-18 08:17N 46°05' W 122°56'0 0.0
2017-Oct-18 07:59N 46°05' W 122°56'0 0.0
2017-Oct-18 07:23N 46°05' W 122°56'0 0.0
2017-Oct-18 06:59N 46°05' W 122°56'0 0.0
2017-Oct-18 06:29N 46°05' W 122°56'0 0.0
2017-Oct-18 05:50N 46°05' W 122°56'0 0.0
2017-Oct-18 05:26N 46°05' W 122°56'0 0.0
2017-Oct-18 04:50N 46°05' W 122°56'0 0.0
2017-Oct-18 04:26N 46°05' W 122°56'0 0.0
2017-Oct-18 03:59N 46°05' W 122°56'0 0.0
2017-Oct-18 03:26N 46°05' W 122°56'0 0.0
2017-Oct-18 02:56N 46°05' W 122°56'0 0.3
2017-Oct-18 02:31N 46°05' W 122°56'2 4.1
2017-Oct-18 02:00N 46°07' W 122°58'3 6.4
2017-Oct-18 01:30N 46°05' W 122°54'611.6
2017-Oct-18 01:01N 45°60' W 122°51'510.8
2017-Oct-18 00:30N 45°55' W 122°48'510.5
2017-Oct-18 00:00N 45°49' W 122°48'510.3
2017-Oct-17 23:30N 45°44' W 122°46'5 9.7
2017-Oct-17 23:00N 45°40' W 122°46'1 0.6
2017-Oct-17 22:08N 45°39' W 122°45'0 0.0
2017-Oct-17 21:59N 45°39' W 122°45'0 0.0
2017-Oct-17 21:29N 45°39' W 122°45'0 0.0
2017-Oct-17 20:59N 45°39' W 122°45'0 0.0
2017-Oct-17 20:05N 45°39' W 122°45'0 0.0
2017-Oct-17 19:56N 45°39' W 122°45'0 0.0
2017-Oct-17 19:29N 45°39' W 122°45'0 0.0
2017-Oct-17 18:59N 45°39' W 122°45'0 0.0
2017-Oct-17 18:17N 45°39' W 122°45'0 0.0
2017-Oct-17 17:50N 45°39' W 122°45'0 0.0
2017-Oct-17 17:20N 45°39' W 122°45'0 0.0
2017-Oct-17 16:53N 45°39' W 122°45'0 0.0
2017-Oct-17 16:14N 45°39' W 122°45'0 0.0
2017-Oct-17 15:53N 45°39' W 122°45'0 0.0
2017-Oct-17 15:29N 45°39' W 122°45'0 0.0
2017-Oct-17 14:47N 45°39' W 122°45'0 0.0
2017-Oct-17 14:23N 45°39' W 122°45'0 0.0
2017-Oct-17 13:59N 45°39' W 122°45'0 0.0
2017-Oct-17 13:29N 45°39' W 122°45'0 0.0
2017-Oct-17 12:59N 45°39' W 122°45'0 0.0
2017-Oct-17 12:26N 45°39' W 122°45'0 0.0
2017-Oct-17 11:59N 45°39' W 122°45'0 0.0
2017-Oct-17 11:29N 45°39' W 122°45'0 0.0
2017-Oct-17 10:53N 45°39' W 122°45'0 0.0
2017-Oct-17 10:29N 45°39' W 122°45'0 0.0
2017-Oct-17 09:59N 45°39' W 122°45'0 0.0
2017-Oct-17 09:29N 45°39' W 122°45'0 0.0
2017-Oct-17 08:59N 45°39' W 122°45'0 0.0
2017-Oct-17 08:29N 45°39' W 122°45'0 0.0
2017-Oct-17 08:01N 45°39' W 122°45'0 0.0
2017-Oct-17 07:28N 45°39' W 122°45'0 0.0
2017-Oct-17 06:58N 45°39' W 122°45'0 0.0
2017-Oct-17 06:28N 45°39' W 122°45'3 6.7
2017-Oct-17 06:01N 45°37' W 122°47'1 2.5
2017-Oct-17 05:25N 45°35' W 122°46'0 0.0
2017-Oct-17 04:58N 45°35' W 122°46'0 0.0
2017-Oct-17 04:28N 45°35' W 122°46'0 0.0
2017-Oct-17 03:58N 45°35' W 122°46'0 0.0
2017-Oct-17 03:16N 45°35' W 122°46'1 3.5
2017-Oct-17 03:01N 45°36' W 122°47'3 6.7
2017-Oct-17 02:30N 45°39' W 122°45'3 6.7
2017-Oct-17 02:01N 45°38' W 122°41'0 0.1
2017-Oct-17 01:30N 45°38' W 122°41'1 1.3
2017-Oct-17 01:00N 45°38' W 122°42'2 3.5
2017-Oct-17 00:31N 45°38' W 122°44'4 8.5
2017-Oct-17 00:01N 45°43' W 122°46'5 9.5
2017-Oct-16 23:30N 45°47' W 122°47'5 9.6
2017-Oct-16 23:01N 45°52' W 122°47'510.2
2017-Oct-16 22:30N 45°57' W 122°48'510.5
2017-Oct-16 22:00N 46°02' W 122°52'4 8.9
2017-Oct-16 21:30N 46°05' W 122°56'0 0.5
2017-Oct-16 21:00N 46°06' W 122°56'4 8.0
2017-Oct-16 20:31N 46°02' W 122°53'5 8.8
2017-Oct-16 20:00N 45°58' W 122°49'4 9.1
2017-Oct-16 19:30N 45°54' W 122°48'5 9.7
2017-Oct-16 19:01N 45°49' W 122°48'510.4
2017-Oct-16 18:31N 45°44' W 122°46'510.3
2017-Oct-16 18:00N 45°39' W 122°45'2 3.4
2017-Oct-16 17:30N 45°38' W 122°44'2 4.1
2017-Oct-16 16:59N 45°39' W 122°45'0 0.0
2017-Oct-16 16:29N 45°39' W 122°45'0 0.0
2017-Oct-16 15:59N 45°39' W 122°45'0 0.0
2017-Oct-16 15:29N 45°39' W 122°45'0 0.0
2017-Oct-16 14:53N 45°39' W 122°45'0 0.0
2017-Oct-16 13:59N 45°39' W 122°45'0 0.0
2017-Oct-16 13:29N 45°39' W 122°45'0 0.0
2017-Oct-16 12:50N 45°39' W 122°45'0 0.0
2017-Oct-16 12:23N 45°39' W 122°45'0 0.0
2017-Oct-16 11:56N 45°39' W 122°45'0 0.0
2017-Oct-16 11:29N 45°39' W 122°45'0 0.0
2017-Oct-16 10:44N 45°39' W 122°45'0 0.0
2017-Oct-16 10:29N 45°39' W 122°45'0 0.0
2017-Oct-16 09:56N 45°39' W 122°45'0 0.0
2017-Oct-16 09:29N 45°39' W 122°45'0 0.0
2017-Oct-16 08:56N 45°39' W 122°45'0 0.0
2017-Oct-16 08:29N 45°39' W 122°45'0 0.0
2017-Oct-16 07:50N 45°39' W 122°45'0 0.0
2017-Oct-16 06:59N 45°39' W 122°45'0 0.0
2017-Oct-16 06:30N 45°39' W 122°45'3 5.1
2017-Oct-16 06:00N 45°38' W 122°42'0 0.5
2017-Oct-16 05:30N 45°38' W 122°42'0 1.0
2017-Oct-16 05:00N 45°38' W 122°43'2 4.5
2017-Oct-16 04:30N 45°39' W 122°45'0 0.0
2017-Oct-16 04:00N 45°39' W 122°45'0 0.0
2017-Oct-16 03:14N 45°39' W 122°45'0 0.0
2017-Oct-16 02:59N 45°39' W 122°45'0 0.0
2017-Oct-16 02:24N 45°39' W 122°45'0 0.0
2017-Oct-16 02:00N 45°39' W 122°45'0 0.0
2017-Oct-16 01:30N 45°39' W 122°45'0 0.0
2017-Oct-16 00:47N 45°39' W 122°45'0 0.0
2017-Oct-16 00:26N 45°39' W 122°45'0 0.0
2017-Oct-16 00:00N 45°39' W 122°45'0 0.0
2017-Oct-15 23:29N 45°39' W 122°45'0 0.0
2017-Oct-15 22:57N 45°39' W 122°45'0 0.0
2017-Oct-15 22:30N 45°39' W 122°45'0 0.0
2017-Oct-15 21:56N 45°39' W 122°45'2 5.2
2017-Oct-15 21:31N 45°41' W 122°47'510.1
2017-Oct-15 21:00N 45°46' W 122°46'5 9.7
2017-Oct-15 20:30N 45°51' W 122°47'510.4
2017-Oct-15 20:00N 45°56' W 122°48'610.0
2017-Oct-15 19:25N 46°02' W 122°52'0 0.0
2017-Oct-15 19:01N 46°02' W 122°52'1 1.6
2017-Oct-15 18:31N 46°02' W 122°53'1 1.6
2017-Oct-15 18:00N 46°02' W 122°52'0 0.0
2017-Oct-15 17:30N 46°02' W 122°52'0 0.2
2017-Oct-15 17:01N 46°02' W 122°52'0 0.2
2017-Oct-15 16:31N 46°02' W 122°52'511.0
2017-Oct-15 16:01N 45°57' W 122°49'611.4
2017-Oct-15 15:30N 45°51' W 122°47'510.8
2017-Oct-15 15:01N 45°46' W 122°46'6 5.6
2017-Oct-15 13:52N 45°39' W 122°45'0 0.0
2017-Oct-15 13:25N 45°39' W 122°45'0 0.0
2017-Oct-15 12:58N 45°39' W 122°45'0 0.0
2017-Oct-15 12:22N 45°39' W 122°45'0 0.0
2017-Oct-15 11:58N 45°39' W 122°45'0 0.0
2017-Oct-15 11:28N 45°39' W 122°45'0 0.0
2017-Oct-15 10:58N 45°39' W 122°45'0 0.0
2017-Oct-15 10:25N 45°39' W 122°45'0 0.0
2017-Oct-15 09:55N 45°39' W 122°45'0 0.0
2017-Oct-15 09:28N 45°39' W 122°45'0 0.0
2017-Oct-15 08:58N 45°39' W 122°45'0 0.0
2017-Oct-15 08:28N 45°39' W 122°45'0 0.0
2017-Oct-15 07:58N 45°39' W 122°45'0 0.0
2017-Oct-15 07:30N 45°39' W 122°45'2 4.3
2017-Oct-15 07:00N 45°38' W 122°43'0 0.2
2017-Oct-15 06:30N 45°38' W 122°43'2 4.2
2017-Oct-15 05:59N 45°39' W 122°45'0 0.0
2017-Oct-15 05:29N 45°39' W 122°45'0 0.0
2017-Oct-15 04:53N 45°39' W 122°45'0 0.0
2017-Oct-15 04:29N 45°39' W 122°45'0 0.0
2017-Oct-15 03:56N 45°39' W 122°45'0 0.0
2017-Oct-15 03:29N 45°39' W 122°45'0 0.0
2017-Oct-15 02:50N 45°39' W 122°45'0 0.0
2017-Oct-15 02:29N 45°39' W 122°45'0 0.0
2017-Oct-15 01:17N 45°39' W 122°45'0 0.0
2017-Oct-15 00:59N 45°39' W 122°45'0 0.0
2017-Oct-15 00:29N 45°39' W 122°45'0 0.0
2017-Oct-14 23:56N 45°39' W 122°45'0 0.0
2017-Oct-14 23:29N 45°39' W 122°45'0 0.0
2017-Oct-14 22:47N 45°39' W 122°45'0 0.0
2017-Oct-14 22:23N 45°39' W 122°45'0 0.0
2017-Oct-14 21:59N 45°39' W 122°45'0 0.0
2017-Oct-14 21:26N 45°39' W 122°45'0 0.0
2017-Oct-14 20:56N 45°39' W 122°45'0 0.0
2017-Oct-14 20:29N 45°39' W 122°45'0 0.0
2017-Oct-14 19:53N 45°39' W 122°45'0 0.0
2017-Oct-14 19:26N 45°39' W 122°45'1 2.4
2017-Oct-14 19:00N 45°39' W 122°46'0 0.1
2017-Oct-14 18:30N 45°39' W 122°46'0 0.1
2017-Oct-14 18:00N 45°39' W 122°46'0 0.0
2017-Oct-14 17:30N 45°39' W 122°46'0 0.1
2017-Oct-14 17:00N 45°39' W 122°46'0 0.0
2017-Oct-14 16:31N 45°39' W 122°46'0 0.0
2017-Oct-14 16:01N 45°39' W 122°46'0 0.0
2017-Oct-14 15:30N 45°39' W 122°46'0 0.0
2017-Oct-14 15:00N 45°39' W 122°46'0 0.0
2017-Oct-14 14:30N 45°39' W 122°46'0 0.0
2017-Oct-14 14:00N 45°39' W 122°46'0 0.0
2017-Oct-14 13:30N 45°39' W 122°46'0 0.0
2017-Oct-14 13:00N 45°39' W 122°46'0 0.1
2017-Oct-14 12:30N 45°39' W 122°46'1 2.1
2017-Oct-14 12:00N 45°39' W 122°45'0 0.0
2017-Oct-14 11:30N 45°39' W 122°45'0 0.0
2017-Oct-14 11:00N 45°39' W 122°45'3 6.7
2017-Oct-14 10:31N 45°43' W 122°46'4 8.4
2017-Oct-14 10:00N 45°47' W 122°46'4 8.1
2017-Oct-14 09:31N 45°51' W 122°47'4 8.3
2017-Oct-14 09:00N 45°55' W 122°48'4 8.2
2017-Oct-14 08:31N 45°59' W 122°50'4 8.9
2017-Oct-14 08:00N 46°03' W 122°53'4 7.6
2017-Oct-14 07:30N 46°06' W 122°56'1 1.2
2017-Oct-14 07:01N 46°05' W 122°56'0 0.1
2017-Oct-14 06:30N 46°05' W 122°55'1 2.6
2017-Oct-14 06:00N 46°06' W 122°57'1 2.3
2017-Oct-14 05:30N 46°05' W 122°56'0 0.0
2017-Oct-14 05:00N 46°05' W 122°56'0 0.0
2017-Oct-14 04:27N 46°05' W 122°56'0 0.0
2017-Oct-14 04:00N 46°05' W 122°56'4 5.9
2017-Oct-14 03:21N 46°02' W 122°53'411.0
2017-Oct-14 03:01N 45°59' W 122°50'611.2
2017-Oct-14 02:30N 45°53' W 122°48'611.3
2017-Oct-14 02:00N 45°48' W 122°47'611.1
2017-Oct-14 01:30N 45°42' W 122°46'510.0
2017-Oct-14 01:00N 45°37' W 122°47'2 3.5
2017-Oct-14 00:31N 45°36' W 122°46'0 0.5
2017-Oct-14 00:00N 45°36' W 122°47'1 2.4
2017-Oct-13 23:31N 45°37' W 122°47'2 3.4
2017-Oct-13 23:00N 45°36' W 122°46'0 0.6
2017-Oct-13 22:29N 45°35' W 122°46'0 0.0
2017-Oct-13 21:59N 45°35' W 122°46'0 0.0
2017-Oct-13 21:14N 45°35' W 122°46'0 0.0
2017-Oct-13 20:56N 45°35' W 122°46'0 0.0
2017-Oct-13 20:26N 45°35' W 122°46'0 0.1
2017-Oct-13 20:00N 45°35' W 122°46'2 4.2
2017-Oct-13 19:30N 45°37' W 122°47'4 8.1
2017-Oct-13 19:00N 45°41' W 122°46'5 9.0
2017-Oct-13 18:27N 45°46' W 122°46'4 8.9
2017-Oct-13 18:00N 45°50' W 122°47'7 8.7
2017-Oct-13 17:14N 45°57' W 122°49'2 8.7
2017-Oct-13 17:01N 45°58' W 122°50'4 8.7
2017-Oct-13 16:30N 46°02' W 122°53'4 7.6
2017-Oct-13 16:01N 46°05' W 122°56'0 0.0
2017-Oct-13 15:30N 46°05' W 122°56'3 6.2
2017-Oct-13 15:00N 46°03' W 122°53'1 2.8
2017-Oct-13 14:30N 46°02' W 122°52'0 0.1
2017-Oct-13 13:51N 46°02' W 122°52'1 3.1
2017-Oct-13 13:31N 46°01' W 122°51'1 1.7
2017-Oct-13 12:50N 46°02' W 122°52'0 0.0
2017-Oct-13 12:30N 46°02' W 122°52'0 0.0
2017-Oct-13 11:56N 46°02' W 122°52'0 0.0
2017-Oct-13 11:31N 46°02' W 122°52'4 7.7
2017-Oct-13 11:01N 45°58' W 122°50'611.0
2017-Oct-13 10:31N 45°53' W 122°48'510.8
2017-Oct-13 10:00N 45°47' W 122°47'811.1
2017-Oct-13 09:15N 45°39' W 122°45'2 8.6
2017-Oct-13 09:00N 45°38' W 122°43'1 2.4
2017-Oct-13 08:30N 45°39' W 122°44'1 0.9
2017-Oct-13 07:53N 45°39' W 122°45'0 1.1
2017-Oct-13 07:28N 45°39' W 122°45'0 0.0
2017-Oct-13 06:58N 45°39' W 122°45'0 0.0
2017-Oct-13 06:28N 45°39' W 122°45'0 0.0
2017-Oct-13 05:55N 45°39' W 122°45'0 0.0
2017-Oct-13 05:19N 45°39' W 122°45'0 0.0
2017-Oct-13 04:58N 45°39' W 122°45'0 0.0
2017-Oct-13 04:28N 45°39' W 122°45'0 0.0
2017-Oct-13 03:52N 45°39' W 122°45'0 0.0
2017-Oct-13 03:28N 45°39' W 122°45'0 0.0
2017-Oct-13 02:52N 45°39' W 122°45'0 0.0
2017-Oct-13 02:16N 45°39' W 122°45'0 0.0
2017-Oct-13 01:52N 45°39' W 122°45'0 0.0
2017-Oct-13 01:28N 45°39' W 122°45'0 0.0
2017-Oct-13 00:55N 45°39' W 122°45'0 0.0
2017-Oct-13 00:22N 45°39' W 122°45'0 0.0
2017-Oct-12 23:55N 45°39' W 122°45'0 0.0
2017-Oct-12 23:28N 45°39' W 122°45'0 0.0
2017-Oct-12 22:58N 45°39' W 122°45'0 0.0
2017-Oct-12 22:19N 45°39' W 122°45'0 0.0
2017-Oct-12 21:55N 45°39' W 122°45'0 0.3
2017-Oct-12 21:30N 45°39' W 122°45'0 0.2
2017-Oct-12 21:01N 45°39' W 122°45'3 6.2
2017-Oct-12 20:31N 45°36' W 122°47'1 2.4
2017-Oct-12 20:00N 45°35' W 122°46'0 0.0
2017-Oct-12 19:30N 45°35' W 122°46'0 0.0
2017-Oct-12 19:00N 45°35' W 122°46'0 0.0
2017-Oct-12 18:31N 45°35' W 122°46'0 0.0
2017-Oct-12 18:00N 45°35' W 122°46'0 0.0
2017-Oct-12 17:30N 45°35' W 122°46'0 0.0
2017-Oct-12 16:56N 45°35' W 122°46'0 0.0
2017-Oct-12 16:30N 45°35' W 122°46'0 0.0
2017-Oct-12 16:01N 45°35' W 122°46'0 0.0
2017-Oct-12 15:30N 45°35' W 122°46'3 6.8
2017-Oct-12 15:01N 45°39' W 122°46'1 2.1
2017-Oct-12 14:30N 45°39' W 122°45'0 0.0
2017-Oct-12 13:57N 45°39' W 122°45'0 0.0
2017-Oct-12 13:30N 45°39' W 122°45'0 0.0
2017-Oct-12 12:48N 45°39' W 122°45'0 0.0
2017-Oct-12 12:30N 45°39' W 122°45'0 0.0
2017-Oct-12 11:48N 45°39' W 122°45'0 0.0
2017-Oct-12 11:30N 45°39' W 122°45'0 0.0
2017-Oct-12 10:57N 45°39' W 122°45'0 0.0
2017-Oct-12 10:24N 45°39' W 122°45'0 0.0
2017-Oct-12 09:51N 45°39' W 122°45'0 0.0
2017-Oct-12 09:30N 45°39' W 122°45'0 0.0
2017-Oct-12 08:54N 45°39' W 122°45'0 0.0
2017-Oct-12 08:30N 45°39' W 122°45'4 5.0
2017-Oct-12 07:43N 45°35' W 122°46'1 6.6
2017-Oct-12 07:30N 45°35' W 122°45'1 1.4
2017-Oct-12 07:00N 45°34' W 122°44'0 0.0
2017-Oct-12 06:30N 45°34' W 122°44'0 0.3
2017-Oct-12 06:01N 45°34' W 122°44'2 3.0
2017-Oct-12 05:25N 45°35' W 122°46'0 0.0
2017-Oct-12 04:58N 45°35' W 122°46'0 0.0
2017-Oct-12 04:25N 45°35' W 122°46'0 0.0
2017-Oct-12 03:49N 45°35' W 122°46'0 0.0
2017-Oct-12 03:28N 45°35' W 122°46'0 0.0
2017-Oct-12 02:58N 45°35' W 122°46'0 0.0
2017-Oct-12 02:25N 45°35' W 122°46'0 0.0
2017-Oct-12 01:55N 45°35' W 122°46'0 0.0
2017-Oct-12 01:28N 45°35' W 122°46'0 0.0
2017-Oct-12 00:58N 45°35' W 122°46'0 0.0
2017-Oct-11 23:40N 45°35' W 122°46'0 0.0
2017-Oct-11 23:28N 45°35' W 122°46'0 0.0
2017-Oct-11 22:58N 45°35' W 122°46'0 0.0
2017-Oct-11 22:15N 45°35' W 122°46'0 0.0
2017-Oct-11 21:55N 45°35' W 122°46'0 0.0
2017-Oct-11 21:25N 45°35' W 122°46'0 0.0
2017-Oct-11 21:00N 45°35' W 122°46'0 0.0
2017-Oct-11 20:30N 45°35' W 122°46'0 0.0
2017-Oct-11 20:00N 45°35' W 122°46'0 0.0
2017-Oct-11 19:30N 45°35' W 122°46'0 0.0
2017-Oct-11 19:00N 45°35' W 122°46'0 0.0
2017-Oct-11 18:30N 45°35' W 122°46'0 0.0
2017-Oct-11 18:00N 45°35' W 122°46'0 0.0
2017-Oct-11 17:30N 45°35' W 122°46'0 0.0
2017-Oct-11 17:00N 45°35' W 122°46'2 0.1
2017-Oct-11 00:00N 45°34' W 122°44'0 0.6
2017-Oct-10 23:31N 45°34' W 122°44'2 3.3
2017-Oct-10 23:00N 45°35' W 122°46'3 6.2
2017-Oct-10 22:30N 45°38' W 122°47'4 7.3
2017-Oct-10 22:00N 45°42' W 122°46'4 7.4
2017-Oct-10 21:30N 45°46' W 122°46'4 7.4
2017-Oct-10 21:00N 45°49' W 122°48'4 7.1
2017-Oct-10 20:30N 45°52' W 122°47'3 6.9
2017-Oct-10 20:01N 45°56' W 122°48'3 6.9
2017-Oct-10 19:30N 45°59' W 122°50'4 7.2
2017-Oct-10 19:01N 46°02' W 122°53'3 6.7
2017-Oct-10 18:30N 46°05' W 122°55'4 7.2
2017-Oct-10 18:00N 46°07' W 122°59'4 7.3
2017-Oct-10 17:30N 46°09' W 123°04'4 7.6
2017-Oct-10 17:00N 46°11' W 123°08'4 7.6
2017-Oct-10 16:30N 46°10' W 123°13'4 7.7
2017-Oct-10 16:00N 46°09' W 123°19'4 7.5
2017-Oct-10 15:26N 46°10' W 123°25'3 7.7
2017-Oct-10 15:00N 46°13' W 123°25'7 7.0
2017-Oct-10 14:00N 46°15' W 123°35'4 8.9
2017-Oct-10 13:30N 46°15' W 123°41'5 9.3
2017-Oct-10 13:01N 46°13' W 123°47'7 8.6
2017-Oct-10 12:15N 46°13' W 123°57'1 6.1
2017-Oct-10 12:01N 46°14' W 123°58'1 1.2
2017-Oct-10 11:31N 46°13' W 123°57'1 1.4
2017-Oct-10 11:01N 46°13' W 123°57'1 1.4
2017-Oct-10 10:30N 46°12' W 123°56'2 4.0
2017-Oct-10 10:00N 46°11' W 123°53'5 7.4
2017-Oct-10 09:18N 46°13' W 123°46'4 8.6
2017-Oct-10 08:52N 46°15' W 123°41'3 9.3
2017-Oct-10 08:30N 46°15' W 123°37'510.6
2017-Oct-10 08:00N 46°16' W 123°29'510.0
2017-Oct-10 07:31N 46°12' W 123°26'510.2
2017-Oct-10 07:00N 46°09' W 123°20'  
Track history (hours):
 
Tides and Currents Weather Stations Pressure Air Temp Water Temp Dewpoint Dewpoint Depression Visibility Wind Speed Wind Dir Waves Ship Positions

Pj Brix

Owner: Foss Maritime Co., Portland, OR. More information available from US FCC via Universal Licensing System and Coast Guard Vessel Documentation Center.

Last reported at 2017-Oct-20 07:00 UTC. Time now 2017-Oct-20 07:21 UTC.
Position N 45°38' W 122°42'.

Length 39 m; draft 3 m.

Type: Towing. MMSI: 2249672.

Date/timePositionNaut miles runAvg speedWind from/ knotsBaromVisibWave heightAir tempDewpointWater temp
2017-Oct-20 07:00N 45°38' W 122°42'0 0.0
2017-Oct-20 06:30N 45°38' W 122°42'0 0.0
2017-Oct-20 06:00N 45°38' W 122°42'0 0.0
2017-Oct-20 05:31N 45°38' W 122°42'0 0.0
2017-Oct-20 05:01N 45°38' W 122°42'0 0.0
2017-Oct-20 04:30N 45°38' W 122°42'0 0.0
2017-Oct-20 04:00N 45°38' W 122°42'0 0.0
2017-Oct-20 03:30N 45°38' W 122°42'0 0.0
2017-Oct-20 03:00N 45°38' W 122°42'0 0.0
2017-Oct-20 02:30N 45°38' W 122°42'0 0.0
2017-Oct-20 02:00N 45°38' W 122°42'0 0.0
2017-Oct-20 01:31N 45°38' W 122°42'0 0.0
2017-Oct-20 01:00N 45°38' W 122°42'0 0.0
2017-Oct-20 00:31N 45°38' W 122°42'0 0.6
2017-Oct-20 00:01N 45°38' W 122°42'0 0.2
2017-Oct-19 23:30N 45°38' W 122°42'1 3.0
2017-Oct-19 23:00N 45°39' W 122°44'1 2.1
2017-Oct-19 22:30N 45°39' W 122°45'0 0.0
2017-Oct-19 21:59N 45°39' W 122°45'0 0.0
2017-Oct-19 21:30N 45°39' W 122°45'0 0.0
2017-Oct-19 21:01N 45°39' W 122°45'0 0.0
2017-Oct-19 20:31N 45°39' W 122°45'0 0.0
2017-Oct-19 20:01N 45°39' W 122°45'0 0.0
2017-Oct-19 19:31N 45°39' W 122°45'0 0.0
2017-Oct-19 19:00N 45°39' W 122°45'0 0.0
2017-Oct-19 18:30N 45°39' W 122°45'0 0.0
2017-Oct-19 18:00N 45°39' W 122°45'0 0.0
2017-Oct-19 17:31N 45°39' W 122°45'0 0.0
2017-Oct-19 17:00N 45°39' W 122°45'0 0.0
2017-Oct-19 16:30N 45°39' W 122°45'0 0.0
2017-Oct-19 16:00N 45°39' W 122°45'0 0.0
2017-Oct-19 15:30N 45°39' W 122°45'0 0.0
2017-Oct-19 15:00N 45°39' W 122°45'0 0.0
2017-Oct-19 14:31N 45°39' W 122°45'0 0.0
2017-Oct-19 13:51N 45°39' W 122°45'0 0.0
2017-Oct-19 13:30N 45°39' W 122°45'0 0.0
2017-Oct-19 13:00N 45°39' W 122°45'0 0.0
2017-Oct-19 12:31N 45°39' W 122°45'0 0.0
2017-Oct-19 12:01N 45°39' W 122°45'0 0.0
2017-Oct-19 11:30N 45°39' W 122°45'0 0.0
2017-Oct-19 11:01N 45°39' W 122°45'0 0.0
2017-Oct-19 10:30N 45°39' W 122°45'0 0.0
2017-Oct-19 09:57N 45°39' W 122°45'0 0.0
2017-Oct-19 09:31N 45°39' W 122°45'0 0.0
2017-Oct-19 09:01N 45°39' W 122°45'0 0.0
2017-Oct-19 08:31N 45°39' W 122°45'0 0.0
2017-Oct-19 08:00N 45°39' W 122°45'0 0.0
2017-Oct-19 07:30N 45°39' W 122°45'0 0.0
2017-Oct-19 07:00N 45°39' W 122°45'0 0.0
2017-Oct-19 06:31N 45°39' W 122°45'1 1.6
2017-Oct-19 06:01N 45°39' W 122°46'0 0.5
2017-Oct-19 05:30N 45°39' W 122°46'1 1.4
2017-Oct-19 04:51N 45°39' W 122°46'0 0.6
2017-Oct-19 04:31N 45°39' W 122°46'0 0.5
2017-Oct-19 04:00N 45°39' W 122°45'0 0.0
2017-Oct-19 03:30N 45°39' W 122°45'0 0.0
2017-Oct-19 03:01N 45°39' W 122°45'1 2.9
2017-Oct-19 02:30N 45°41' W 122°46'4 7.2
2017-Oct-19 01:59N 45°44' W 122°46'3 7.3
2017-Oct-19 01:30N 45°48' W 122°47'4 7.5
2017-Oct-19 01:01N 45°51' W 122°47'4 8.1
2017-Oct-19 00:31N 45°55' W 122°49'4 8.4
2017-Oct-19 00:00N 45°59' W 122°51'5 9.1
2017-Oct-18 23:31N 46°03' W 122°53'3 5.3
2017-Oct-18 23:01N 46°05' W 122°56'0 0.0
2017-Oct-18 22:29N 46°05' W 122°56'0 0.1
2017-Oct-18 21:59N 46°05' W 122°56'0 0.0
2017-Oct-18 21:26N 46°05' W 122°56'0 0.0
2017-Oct-18 20:59N 46°05' W 122°56'0 0.0
2017-Oct-18 20:29N 46°05' W 122°56'0 0.0
2017-Oct-18 19:56N 46°05' W 122°56'0 0.0
2017-Oct-18 19:29N 46°05' W 122°56'0 0.0
2017-Oct-18 18:59N 46°05' W 122°56'0 0.0
2017-Oct-18 18:29N 46°05' W 122°56'0 0.0
2017-Oct-18 17:59N 46°05' W 122°56'0 0.0
2017-Oct-18 17:29N 46°05' W 122°56'0 0.0
2017-Oct-18 16:56N 46°05' W 122°56'0 0.0
2017-Oct-18 16:29N 46°05' W 122°56'0 0.0
2017-Oct-18 15:50N 46°05' W 122°56'0 0.0
2017-Oct-18 15:23N 46°05' W 122°56'0 0.0
2017-Oct-18 14:53N 46°05' W 122°56'0 0.0
2017-Oct-18 13:56N 46°05' W 122°56'0 0.0
2017-Oct-18 13:29N 46°05' W 122°56'0 0.0
2017-Oct-18 12:44N 46°05' W 122°56'0 0.0
2017-Oct-18 12:29N 46°05' W 122°56'0 0.0
2017-Oct-18 11:59N 46°05' W 122°56'0 0.0
2017-Oct-18 11:29N 46°05' W 122°56'0 0.0
2017-Oct-18 10:59N 46°05' W 122°56'0 0.0
2017-Oct-18 10:26N 46°05' W 122°56'0 0.0
2017-Oct-18 09:59N 46°05' W 122°56'0 0.0
2017-Oct-18 09:26N 46°05' W 122°56'0 0.0
2017-Oct-18 08:47N 46°05' W 122°56'0 0.0
2017-Oct-18 08:17N 46°05' W 122°56'0 0.0
2017-Oct-18 07:59N 46°05' W 122°56'0 0.0
2017-Oct-18 07:23N 46°05' W 122°56'0 0.0
2017-Oct-18 06:59N 46°05' W 122°56'0 0.0
2017-Oct-18 06:29N 46°05' W 122°56'0 0.0
2017-Oct-18 05:50N 46°05' W 122°56'0 0.0
2017-Oct-18 05:26N 46°05' W 122°56'0 0.0
2017-Oct-18 04:50N 46°05' W 122°56'0 0.0
2017-Oct-18 04:26N 46°05' W 122°56'0 0.0
2017-Oct-18 03:59N 46°05' W 122°56'0 0.0
2017-Oct-18 03:26N 46°05' W 122°56'0 0.0
2017-Oct-18 02:56N 46°05' W 122°56'0 0.3
2017-Oct-18 02:31N 46°05' W 122°56'2 4.1
2017-Oct-18 02:00N 46°07' W 122°58'3 6.4
2017-Oct-18 01:30N 46°05' W 122°54'611.6
2017-Oct-18 01:01N 45°60' W 122°51'510.8
2017-Oct-18 00:30N 45°55' W 122°48'510.5
2017-Oct-18 00:00N 45°49' W 122°48'510.3
2017-Oct-17 23:30N 45°44' W 122°46'5 9.7
2017-Oct-17 23:00N 45°40' W 122°46'1 0.6
2017-Oct-17 22:08N 45°39' W 122°45'0 0.0
2017-Oct-17 21:59N 45°39' W 122°45'0 0.0
2017-Oct-17 21:29N 45°39' W 122°45'0 0.0
2017-Oct-17 20:59N 45°39' W 122°45'0 0.0
2017-Oct-17 20:05N 45°39' W 122°45'0 0.0
2017-Oct-17 19:56N 45°39' W 122°45'0 0.0
2017-Oct-17 19:29N 45°39' W 122°45'0 0.0
2017-Oct-17 18:59N 45°39' W 122°45'0 0.0
2017-Oct-17 18:17N 45°39' W 122°45'0 0.0
2017-Oct-17 17:50N 45°39' W 122°45'0 0.0
2017-Oct-17 17:20N 45°39' W 122°45'0 0.0
2017-Oct-17 16:53N 45°39' W 122°45'0 0.0
2017-Oct-17 16:14N 45°39' W 122°45'0 0.0
2017-Oct-17 15:53N 45°39' W 122°45'0 0.0
2017-Oct-17 15:29N 45°39' W 122°45'0 0.0
2017-Oct-17 14:47N 45°39' W 122°45'0 0.0
2017-Oct-17 14:23N 45°39' W 122°45'0 0.0
2017-Oct-17 13:59N 45°39' W 122°45'0 0.0
2017-Oct-17 13:29N 45°39' W 122°45'0 0.0
2017-Oct-17 12:59N 45°39' W 122°45'0 0.0
2017-Oct-17 12:26N 45°39' W 122°45'0 0.0
2017-Oct-17 11:59N 45°39' W 122°45'0 0.0
2017-Oct-17 11:29N 45°39' W 122°45'0 0.0
2017-Oct-17 10:53N 45°39' W 122°45'0 0.0
2017-Oct-17 10:29N 45°39' W 122°45'0 0.0
2017-Oct-17 09:59N 45°39' W 122°45'0 0.0
2017-Oct-17 09:29N 45°39' W 122°45'0 0.0
2017-Oct-17 08:59N 45°39' W 122°45'0 0.0
2017-Oct-17 08:29N 45°39' W 122°45'0 0.0
2017-Oct-17 08:01N 45°39' W 122°45'0 0.0
2017-Oct-17 07:28N 45°39' W 122°45'0 0.0
2017-Oct-17 06:58N 45°39' W 122°45'0 0.0
2017-Oct-17 06:28N 45°39' W 122°45'3 6.7
2017-Oct-17 06:01N 45°37' W 122°47'1 2.5
2017-Oct-17 05:25N 45°35' W 122°46'0 0.0
2017-Oct-17 04:58N 45°35' W 122°46'0 0.0
2017-Oct-17 04:28N 45°35' W 122°46'0 0.0
2017-Oct-17 03:58N 45°35' W 122°46'0 0.0
2017-Oct-17 03:16N 45°35' W 122°46'1 3.5
2017-Oct-17 03:01N 45°36' W 122°47'3 6.7
2017-Oct-17 02:30N 45°39' W 122°45'3 6.7
2017-Oct-17 02:01N 45°38' W 122°41'0 0.1
2017-Oct-17 01:30N 45°38' W 122°41'1 1.3
2017-Oct-17 01:00N 45°38' W 122°42'2 3.5
2017-Oct-17 00:31N 45°38' W 122°44'4 8.5
2017-Oct-17 00:01N 45°43' W 122°46'5 9.5
2017-Oct-16 23:30N 45°47' W 122°47'5 9.6
2017-Oct-16 23:01N 45°52' W 122°47'510.2
2017-Oct-16 22:30N 45°57' W 122°48'510.5
2017-Oct-16 22:00N 46°02' W 122°52'4 8.9
2017-Oct-16 21:30N 46°05' W 122°56'0 0.5
2017-Oct-16 21:00N 46°06' W 122°56'4 8.0
2017-Oct-16 20:31N 46°02' W 122°53'5 8.8
2017-Oct-16 20:00N 45°58' W 122°49'4 9.1
2017-Oct-16 19:30N 45°54' W 122°48'5 9.7
2017-Oct-16 19:01N 45°49' W 122°48'510.4
2017-Oct-16 18:31N 45°44' W 122°46'510.3
2017-Oct-16 18:00N 45°39' W 122°45'2 3.4
2017-Oct-16 17:30N 45°38' W 122°44'2 4.1
2017-Oct-16 16:59N 45°39' W 122°45'0 0.0
2017-Oct-16 16:29N 45°39' W 122°45'0 0.0
2017-Oct-16 15:59N 45°39' W 122°45'0 0.0
2017-Oct-16 15:29N 45°39' W 122°45'0 0.0
2017-Oct-16 14:53N 45°39' W 122°45'0 0.0
2017-Oct-16 13:59N 45°39' W 122°45'0 0.0
2017-Oct-16 13:29N 45°39' W 122°45'0 0.0
2017-Oct-16 12:50N 45°39' W 122°45'0 0.0
2017-Oct-16 12:23N 45°39' W 122°45'0 0.0
2017-Oct-16 11:56N 45°39' W 122°45'0 0.0
2017-Oct-16 11:29N 45°39' W 122°45'0 0.0
2017-Oct-16 10:44N 45°39' W 122°45'0 0.0
2017-Oct-16 10:29N 45°39' W 122°45'0 0.0
2017-Oct-16 09:56N 45°39' W 122°45'0 0.0
2017-Oct-16 09:29N 45°39' W 122°45'0 0.0
2017-Oct-16 08:56N 45°39' W 122°45'0 0.0
2017-Oct-16 08:29N 45°39' W 122°45'0 0.0
2017-Oct-16 07:50N 45°39' W 122°45'0 0.0
2017-Oct-16 06:59N 45°39' W 122°45'0 0.0
2017-Oct-16 06:30N 45°39' W 122°45'3 5.1
2017-Oct-16 06:00N 45°38' W 122°42'0 0.5
2017-Oct-16 05:30N 45°38' W 122°42'0 1.0
2017-Oct-16 05:00N 45°38' W 122°43'2 4.5
2017-Oct-16 04:30N 45°39' W 122°45'0 0.0
2017-Oct-16 04:00N 45°39' W 122°45'0 0.0
2017-Oct-16 03:14N 45°39' W 122°45'0 0.0
2017-Oct-16 02:59N 45°39' W 122°45'0 0.0
2017-Oct-16 02:24N 45°39' W 122°45'0 0.0
2017-Oct-16 02:00N 45°39' W 122°45'0 0.0
2017-Oct-16 01:30N 45°39' W 122°45'0 0.0
2017-Oct-16 00:47N 45°39' W 122°45'0 0.0
2017-Oct-16 00:26N 45°39' W 122°45'0 0.0
2017-Oct-16 00:00N 45°39' W 122°45'0 0.0
2017-Oct-15 23:29N 45°39' W 122°45'0 0.0
2017-Oct-15 22:57N 45°39' W 122°45'0 0.0
2017-Oct-15 22:30N 45°39' W 122°45'0 0.0
2017-Oct-15 21:56N 45°39' W 122°45'2 5.2
2017-Oct-15 21:31N 45°41' W 122°47'510.1
2017-Oct-15 21:00N 45°46' W 122°46'5 9.7
2017-Oct-15 20:30N 45°51' W 122°47'510.4
2017-Oct-15 20:00N 45°56' W 122°48'610.0
2017-Oct-15 19:25N 46°02' W 122°52'0 0.0
2017-Oct-15 19:01N 46°02' W 122°52'1 1.6
2017-Oct-15 18:31N 46°02' W 122°53'1 1.6
2017-Oct-15 18:00N 46°02' W 122°52'0 0.0
2017-Oct-15 17:30N 46°02' W 122°52'0 0.2
2017-Oct-15 17:01N 46°02' W 122°52'0 0.2
2017-Oct-15 16:31N 46°02' W 122°52'511.0
2017-Oct-15 16:01N 45°57' W 122°49'611.4
2017-Oct-15 15:30N 45°51' W 122°47'510.8
2017-Oct-15 15:01N 45°46' W 122°46'6 5.6
2017-Oct-15 13:52N 45°39' W 122°45'0 0.0
2017-Oct-15 13:25N 45°39' W 122°45'0 0.0
2017-Oct-15 12:58N 45°39' W 122°45'0 0.0
2017-Oct-15 12:22N 45°39' W 122°45'0 0.0
2017-Oct-15 11:58N 45°39' W 122°45'0 0.0
2017-Oct-15 11:28N 45°39' W 122°45'0 0.0
2017-Oct-15 10:58N 45°39' W 122°45'0 0.0
2017-Oct-15 10:25N 45°39' W 122°45'0 0.0
2017-Oct-15 09:55N 45°39' W 122°45'0 0.0
2017-Oct-15 09:28N 45°39' W 122°45'0 0.0
2017-Oct-15 08:58N 45°39' W 122°45'0 0.0
2017-Oct-15 08:28N 45°39' W 122°45'0 0.0
2017-Oct-15 07:58N 45°39' W 122°45'0 0.0
2017-Oct-15 07:30N 45°39' W 122°45'2 4.3
2017-Oct-15 07:00N 45°38' W 122°43'0 0.2
2017-Oct-15 06:30N 45°38' W 122°43'2 4.2
2017-Oct-15 05:59N 45°39' W 122°45'0 0.0
2017-Oct-15 05:29N 45°39' W 122°45'0 0.0
2017-Oct-15 04:53N 45°39' W 122°45'0 0.0
2017-Oct-15 04:29N 45°39' W 122°45'0 0.0
2017-Oct-15 03:56N 45°39' W 122°45'0 0.0
2017-Oct-15 03:29N 45°39' W 122°45'0 0.0
2017-Oct-15 02:50N 45°39' W 122°45'0 0.0
2017-Oct-15 02:29N 45°39' W 122°45'0 0.0
2017-Oct-15 01:17N 45°39' W 122°45'0 0.0
2017-Oct-15 00:59N 45°39' W 122°45'0 0.0
2017-Oct-15 00:29N 45°39' W 122°45'0 0.0
2017-Oct-14 23:56N 45°39' W 122°45'0 0.0
2017-Oct-14 23:29N 45°39' W 122°45'0 0.0
2017-Oct-14 22:47N 45°39' W 122°45'0 0.0
2017-Oct-14 22:23N 45°39' W 122°45'0 0.0
2017-Oct-14 21:59N 45°39' W 122°45'0 0.0
2017-Oct-14 21:26N 45°39' W 122°45'0 0.0
2017-Oct-14 20:56N 45°39' W 122°45'0 0.0
2017-Oct-14 20:29N 45°39' W 122°45'0 0.0
2017-Oct-14 19:53N 45°39' W 122°45'0 0.0
2017-Oct-14 19:26N 45°39' W 122°45'1 2.4
2017-Oct-14 19:00N 45°39' W 122°46'0 0.1
2017-Oct-14 18:30N 45°39' W 122°46'0 0.1
2017-Oct-14 18:00N 45°39' W 122°46'0 0.0
2017-Oct-14 17:30N 45°39' W 122°46'0 0.1
2017-Oct-14 17:00N 45°39' W 122°46'0 0.0
2017-Oct-14 16:31N 45°39' W 122°46'0 0.0
2017-Oct-14 16:01N 45°39' W 122°46'0 0.0
2017-Oct-14 15:30N 45°39' W 122°46'0 0.0
2017-Oct-14 15:00N 45°39' W 122°46'0 0.0
2017-Oct-14 14:30N 45°39' W 122°46'0 0.0
2017-Oct-14 14:00N 45°39' W 122°46'0 0.0
2017-Oct-14 13:30N 45°39' W 122°46'0 0.0
2017-Oct-14 13:00N 45°39' W 122°46'0 0.1
2017-Oct-14 12:30N 45°39' W 122°46'1 2.1
2017-Oct-14 12:00N 45°39' W 122°45'0 0.0
2017-Oct-14 11:30N 45°39' W 122°45'0 0.0
2017-Oct-14 11:00N 45°39' W 122°45'3 6.7
2017-Oct-14 10:31N 45°43' W 122°46'4 8.4
2017-Oct-14 10:00N 45°47' W 122°46'4 8.1
2017-Oct-14 09:31N 45°51' W 122°47'4 8.3
2017-Oct-14 09:00N 45°55' W 122°48'4 8.2
2017-Oct-14 08:31N 45°59' W 122°50'4 8.9
2017-Oct-14 08:00N 46°03' W 122°53'4 7.6
2017-Oct-14 07:30N 46°06' W 122°56'1 1.2
2017-Oct-14 07:01N 46°05' W 122°56'0 0.1
2017-Oct-14 06:30N 46°05' W 122°55'1 2.6
2017-Oct-14 06:00N 46°06' W 122°57'1 2.3
2017-Oct-14 05:30N 46°05' W 122°56'0 0.0
2017-Oct-14 05:00N 46°05' W 122°56'0 0.0
2017-Oct-14 04:27N 46°05' W 122°56'0 0.0
2017-Oct-14 04:00N 46°05' W 122°56'4 5.9
2017-Oct-14 03:21N 46°02' W 122°53'411.0
2017-Oct-14 03:01N 45°59' W 122°50'611.2
2017-Oct-14 02:30N 45°53' W 122°48'611.3
2017-Oct-14 02:00N 45°48' W 122°47'611.1
2017-Oct-14 01:30N 45°42' W 122°46'510.0
2017-Oct-14 01:00N 45°37' W 122°47'2 3.5
2017-Oct-14 00:31N 45°36' W 122°46'0 0.5
2017-Oct-14 00:00N 45°36' W 122°47'1 2.4
2017-Oct-13 23:31N 45°37' W 122°47'2 3.4
2017-Oct-13 23:00N 45°36' W 122°46'0 0.6
2017-Oct-13 22:29N 45°35' W 122°46'0 0.0
2017-Oct-13 21:59N 45°35' W 122°46'0 0.0
2017-Oct-13 21:14N 45°35' W 122°46'0 0.0
2017-Oct-13 20:56N 45°35' W 122°46'0 0.0
2017-Oct-13 20:26N 45°35' W 122°46'0 0.1
2017-Oct-13 20:00N 45°35' W 122°46'2 4.2
2017-Oct-13 19:30N 45°37' W 122°47'4 8.1
2017-Oct-13 19:00N 45°41' W 122°46'5 9.0
2017-Oct-13 18:27N 45°46' W 122°46'4 8.9
2017-Oct-13 18:00N 45°50' W 122°47'7 8.7
2017-Oct-13 17:14N 45°57' W 122°49'2 8.7
2017-Oct-13 17:01N 45°58' W 122°50'4 8.7
2017-Oct-13 16:30N 46°02' W 122°53'4 7.6
2017-Oct-13 16:01N 46°05' W 122°56'0 0.0
2017-Oct-13 15:30N 46°05' W 122°56'3 6.2
2017-Oct-13 15:00N 46°03' W 122°53'1 2.8
2017-Oct-13 14:30N 46°02' W 122°52'0 0.1
2017-Oct-13 13:51N 46°02' W 122°52'1 3.1
2017-Oct-13 13:31N 46°01' W 122°51'1 1.7
2017-Oct-13 12:50N 46°02' W 122°52'0 0.0
2017-Oct-13 12:30N 46°02' W 122°52'0 0.0
2017-Oct-13 11:56N 46°02' W 122°52'0 0.0
2017-Oct-13 11:31N 46°02' W 122°52'4 7.7
2017-Oct-13 11:01N 45°58' W 122°50'611.0
2017-Oct-13 10:31N 45°53' W 122°48'510.8
2017-Oct-13 10:00N 45°47' W 122°47'811.1
2017-Oct-13 09:15N 45°39' W 122°45'2 8.6
2017-Oct-13 09:00N 45°38' W 122°43'1 2.4
2017-Oct-13 08:30N 45°39' W 122°44'1 0.9
2017-Oct-13 07:53N 45°39' W 122°45'0 1.1
2017-Oct-13 07:28N 45°39' W 122°45'0 0.0
2017-Oct-13 06:58N 45°39' W 122°45'0 0.0
2017-Oct-13 06:28N 45°39' W 122°45'0 0.0
2017-Oct-13 05:55N 45°39' W 122°45'0 0.0
2017-Oct-13 05:19N 45°39' W 122°45'0 0.0
2017-Oct-13 04:58N 45°39' W 122°45'0 0.0
2017-Oct-13 04:28N 45°39' W 122°45'0 0.0
2017-Oct-13 03:52N 45°39' W 122°45'0 0.0
2017-Oct-13 03:28N 45°39' W 122°45'0 0.0
2017-Oct-13 02:52N 45°39' W 122°45'0 0.0
2017-Oct-13 02:16N 45°39' W 122°45'0 0.0
2017-Oct-13 01:52N 45°39' W 122°45'0 0.0
2017-Oct-13 01:28N 45°39' W 122°45'0 0.0
2017-Oct-13 00:55N 45°39' W 122°45'0 0.0
2017-Oct-13 00:22N 45°39' W 122°45'0 0.0
2017-Oct-12 23:55N 45°39' W 122°45'0 0.0
2017-Oct-12 23:28N 45°39' W 122°45'0 0.0
2017-Oct-12 22:58N 45°39' W 122°45'0 0.0
2017-Oct-12 22:19N 45°39' W 122°45'0 0.0
2017-Oct-12 21:55N 45°39' W 122°45'0 0.3
2017-Oct-12 21:30N 45°39' W 122°45'0 0.2
2017-Oct-12 21:01N 45°39' W 122°45'3 6.2
2017-Oct-12 20:31N 45°36' W 122°47'1 2.4
2017-Oct-12 20:00N 45°35' W 122°46'0 0.0
2017-Oct-12 19:30N 45°35' W 122°46'0 0.0
2017-Oct-12 19:00N 45°35' W 122°46'0 0.0
2017-Oct-12 18:31N 45°35' W 122°46'0 0.0
2017-Oct-12 18:00N 45°35' W 122°46'0 0.0
2017-Oct-12 17:30N 45°35' W 122°46'0 0.0
2017-Oct-12 16:56N 45°35' W 122°46'0 0.0
2017-Oct-12 16:30N 45°35' W 122°46'0 0.0
2017-Oct-12 16:01N 45°35' W 122°46'0 0.0
2017-Oct-12 15:30N 45°35' W 122°46'3 6.8
2017-Oct-12 15:01N 45°39' W 122°46'1 2.1
2017-Oct-12 14:30N 45°39' W 122°45'0 0.0
2017-Oct-12 13:57N 45°39' W 122°45'0 0.0
2017-Oct-12 13:30N 45°39' W 122°45'0 0.0
2017-Oct-12 12:48N 45°39' W 122°45'0 0.0
2017-Oct-12 12:30N 45°39' W 122°45'0 0.0
2017-Oct-12 11:48N 45°39' W 122°45'0 0.0
2017-Oct-12 11:30N 45°39' W 122°45'0 0.0
2017-Oct-12 10:57N 45°39' W 122°45'0 0.0
2017-Oct-12 10:24N 45°39' W 122°45'0 0.0
2017-Oct-12 09:51N 45°39' W 122°45'0 0.0
2017-Oct-12 09:30N 45°39' W 122°45'0 0.0
2017-Oct-12 08:54N 45°39' W 122°45'0 0.0
2017-Oct-12 08:30N 45°39' W 122°45'4 5.0
2017-Oct-12 07:43N 45°35' W 122°46'1 6.6
2017-Oct-12 07:30N 45°35' W 122°45'1 1.4
2017-Oct-12 07:00N 45°34' W 122°44'0 0.0
2017-Oct-12 06:30N 45°34' W 122°44'0 0.3
2017-Oct-12 06:01N 45°34' W 122°44'2 3.0
2017-Oct-12 05:25N 45°35' W 122°46'0 0.0
2017-Oct-12 04:58N 45°35' W 122°46'0 0.0
2017-Oct-12 04:25N 45°35' W 122°46'0 0.0
2017-Oct-12 03:49N 45°35' W 122°46'0 0.0
2017-Oct-12 03:28N 45°35' W 122°46'0 0.0
2017-Oct-12 02:58N 45°35' W 122°46'0 0.0
2017-Oct-12 02:25N 45°35' W 122°46'0 0.0
2017-Oct-12 01:55N 45°35' W 122°46'0 0.0
2017-Oct-12 01:28N 45°35' W 122°46'0 0.0
2017-Oct-12 00:58N 45°35' W 122°46'0 0.0
2017-Oct-11 23:40N 45°35' W 122°46'0 0.0
2017-Oct-11 23:28N 45°35' W 122°46'0 0.0
2017-Oct-11 22:58N 45°35' W 122°46'0 0.0
2017-Oct-11 22:15N 45°35' W 122°46'0 0.0
2017-Oct-11 21:55N 45°35' W 122°46'0 0.0
2017-Oct-11 21:25N 45°35' W 122°46'0 0.0
2017-Oct-11 21:00N 45°35' W 122°46'0 0.0
2017-Oct-11 20:30N 45°35' W 122°46'0 0.0
2017-Oct-11 20:00N 45°35' W 122°46'0 0.0
2017-Oct-11 19:30N 45°35' W 122°46'0 0.0
2017-Oct-11 19:00N 45°35' W 122°46'0 0.0
2017-Oct-11 18:30N 45°35' W 122°46'0 0.0
2017-Oct-11 18:00N 45°35' W 122°46'0 0.0
2017-Oct-11 17:30N 45°35' W 122°46'0 0.0
2017-Oct-11 17:00N 45°35' W 122°46'2 0.1
2017-Oct-11 00:00N 45°34' W 122°44'0 0.6
2017-Oct-10 23:31N 45°34' W 122°44'2 3.3
2017-Oct-10 23:00N 45°35' W 122°46'3 6.2
2017-Oct-10 22:30N 45°38' W 122°47'4 7.3
2017-Oct-10 22:00N 45°42' W 122°46'4 7.4
2017-Oct-10 21:30N 45°46' W 122°46'4 7.4
2017-Oct-10 21:00N 45°49' W 122°48'4 7.1
2017-Oct-10 20:30N 45°52' W 122°47'3 6.9
2017-Oct-10 20:01N 45°56' W 122°48'3 6.9
2017-Oct-10 19:30N 45°59' W 122°50'4 7.2
2017-Oct-10 19:01N 46°02' W 122°53'3 6.7
2017-Oct-10 18:30N 46°05' W 122°55'4 7.2
2017-Oct-10 18:00N 46°07' W 122°59'4 7.3
2017-Oct-10 17:30N 46°09' W 123°04'4 7.6
2017-Oct-10 17:00N 46°11' W 123°08'4 7.6
2017-Oct-10 16:30N 46°10' W 123°13'4 7.7
2017-Oct-10 16:00N 46°09' W 123°19'4 7.5
2017-Oct-10 15:26N 46°10' W 123°25'3 7.7
2017-Oct-10 15:00N 46°13' W 123°25'7 7.0
2017-Oct-10 14:00N 46°15' W 123°35'4 8.9
2017-Oct-10 13:30N 46°15' W 123°41'5 9.3
2017-Oct-10 13:01N 46°13' W 123°47'7 8.6
2017-Oct-10 12:15N 46°13' W 123°57'1 6.1
2017-Oct-10 12:01N 46°14' W 123°58'1 1.2
2017-Oct-10 11:31N 46°13' W 123°57'1 1.4
2017-Oct-10 11:01N 46°13' W 123°57'1 1.4
2017-Oct-10 10:30N 46°12' W 123°56'2 4.0
2017-Oct-10 10:00N 46°11' W 123°53'5 7.4
2017-Oct-10 09:18N 46°13' W 123°46'4 8.6
2017-Oct-10 08:52N 46°15' W 123°41'3 9.3
2017-Oct-10 08:30N 46°15' W 123°37'510.6
2017-Oct-10 08:00N 46°16' W 123°29'510.0
2017-Oct-10 07:31N 46°12' W 123°26'510.2
2017-Oct-10 07:00N 46°09' W 123°20'  

Dump ship's entire track history